Flight Track Log - Related Links

Times and Time Zones

All times are in EDT time to prevent confusion due to time zone crossing. See the KLM1692 flight status page for this flight to view local times or setup timezone preferences in your user account.

Time Position Orientation Groundspeed Altitude Reporting Facility
EDT Latitude Longitude Course Direction KTS MPH feet Rate Location/Type
Tue 03:25:21 AM 38.7920 -9.1300 260° West 140 161 800  Level FlightAware ADS-B
Tue 03:25:57 AM 38.8140 -9.1160 26° Northeast 146 168 2,500 2,620 Climbing FlightAware ADS-B
Tue 03:26:32 AM 38.8320 -9.0930 45° Northeast 168 193 3,900 2,400 Climbing FlightAware ADS-B
Tue 03:27:07 AM 38.8560 -9.0650 42° Northeast 210 242 5,300 2,492 Climbing FlightAware ADS-B
Tue 03:27:37 AM 38.8790 -9.0360 44° Northeast 248 285 6,600 2,600 Climbing FlightAware ADS-B
Tue 03:28:07 AM 38.9070 -9.0030 43° Northeast 270 311 7,900 3,158 Climbing FlightAware ADS-B
Tue 03:28:53 AM 38.9510 -8.9470 45° Northeast 286 329 10,600 2,889 Climbing FlightAware ADS-B
Tue 03:29:28 AM 38.9880 -8.9000 45° Northeast 325 374 11,800 2,545 Climbing FlightAware ADS-B
Tue 03:29:59 AM 39.0230 -8.8580 43° Northeast 344 396 13,400 2,967 Climbing FlightAware ADS-B
Tue 03:30:59 AM 39.0930 -8.7690 45° Northeast 364 419 16,300 2,899 Climbing FlightAware ADS-B
Tue 03:31:28 AM 39.1290 -8.7250 43° Northeast 367 422 17,700 3,094 Climbing FlightAware ADS-B
Tue 03:32:03 AM 39.1730 -8.6690 45° Northeast 368 423 19,600 3,231 Climbing FlightAware ADS-B
Tue 03:32:33 AM 39.2090 -8.6230 45° Northeast 368 423 21,200 3,099 Climbing FlightAware ADS-B
Tue 03:33:34 AM 39.2840 -8.5280 44° Northeast 369 425 24,300 2,779 Climbing FlightAware ADS-B
Tue 03:34:08 AM 39.3280 -8.4730 44° Northeast 383 441 25,600 2,215 Climbing FlightAware ADS-B
Tue 03:34:39 AM 39.3660 -8.4250 44° Northeast 389 448 26,700 2,123 Climbing FlightAware ADS-B
Tue 03:35:13 AM 39.4110 -8.3690 44° Northeast 390 449 27,900 2,229 Climbing FlightAware ADS-B
Tue 03:35:49 AM 39.4580 -8.3080 45° Northeast 390 449 29,300 2,800 Climbing FlightAware ADS-B
Tue 03:36:43 AM 39.5270 -8.2190 45° Northeast 365 420 32,100 2,256 Climbing FlightAware ADS-B
Tue 03:37:54 AM 39.6120 -8.1110 44° Northeast 367 422 34,000 1,118 Climbing FlightAware ADS-B
Tue 03:38:25 AM 39.6490 -8.0640 44° Northeast 364 419 34,000  Level FlightAware ADS-B
Tue 03:38:59 AM 39.6910 -8.0090 45° Northeast 374 430 34,000  Level FlightAware ADS-B
Tue 03:39:35 AM 39.7350 -7.9530 44° Northeast 377 434 34,000  Level FlightAware ADS-B
Tue 03:40:35 AM 39.8110 -7.8550 45° Northeast 384 442 34,000  Level FlightAware ADS-B
Tue 03:41:14 AM 39.8620 -7.7890 45° Northeast 386 444 34,000  Level FlightAware ADS-B
Tue 03:41:50 AM 39.9080 -7.7300 45° Northeast 388 447 34,000  Level FlightAware ADS-B
Tue 03:42:14 AM 39.9370 -7.6920 45° Northeast 389 448 34,000  Level FlightAware ADS-B
Tue 03:43:00 AM 39.9970 -7.6140 45° Northeast 390 449 34,000  Level FlightAware ADS-B
Tue 03:43:24 AM 40.0260 -7.5760 45° Northeast 390 449 34,000  Level FlightAware ADS-B
Tue 03:44:04 AM 40.0800 -7.5050 45° Northeast 391 450 34,000  Level FlightAware ADS-B
Tue 03:45:10 AM 40.1630 -7.3950 45° Northeast 396 456 34,000  Level FlightAware ADS-B
Tue 03:45:41 AM 40.2030 -7.3440 44° Northeast 391 450 34,000  Level FlightAware ADS-B
Tue 03:46:15 AM 40.2470 -7.2860 45° Northeast 405 466 34,000  Level FlightAware ADS-B
Tue 03:46:56 AM 40.3030 -7.2120 45° Northeast 409 471 34,000  Level FlightAware ADS-B
Tue 03:47:30 AM 40.3470 -7.1540 45° Northeast 410 472 34,000  Level FlightAware ADS-B
Tue 03:48:05 AM 40.3960 -7.0900 45° Northeast 414 476 34,000  Level FlightAware ADS-B
Tue 03:49:06 AM 40.4730 -6.9870 45° Northeast 420 483 34,000  Level FlightAware ADS-B
Tue 03:49:49 AM 40.5380 -6.9020 45° Northeast 422 486 34,000  Level FlightAware ADS-B
Tue 03:50:25 AM 40.5880 -6.8340 46° Northeast 424 488 34,000  Level FlightAware ADS-B
Tue 03:51:29 AM 40.6760 -6.7160 45° Northeast 432 497 34,000  Level FlightAware ADS-B
Tue 03:52:05 AM 40.7250 -6.6500 46° Northeast 435 501 34,000 417 Level FlightAware ADS-B
Tue 03:52:41 AM 40.7780 -6.5780 46° Northeast 432 497 34,500 1,286 Climbing FlightAware ADS-B
Tue 03:53:29 AM 40.8430 -6.4900 46° Northeast 428 493 35,800 1,421 Climbing FlightAware ADS-B
Tue 03:53:57 AM 40.8830 -6.4380 44° Northeast 432 497 36,300 870 Climbing FlightAware ADS-B
Tue 03:54:38 AM 40.9400 -6.3590 46° Northeast 441 507 36,800 906 Climbing FlightAware ADS-B
Tue 03:55:43 AM 41.0370 -6.2340 44° Northeast 446 513 37,900 1,102 Climbing FlightAware ADS-B
Tue 03:56:16 AM 41.0860 -6.1760 42° Northeast 444 511 38,600 1,200 Climbing FlightAware ADS-B
Tue 03:56:48 AM 41.1360 -6.1170 42° Northeast 442 509 39,200 1,059 Climbing FlightAware ADS-B
Tue 03:57:24 AM 41.1880 -6.0530 43° Northeast 441 507 39,800 716 Climbing FlightAware ADS-B
Tue 03:57:55 AM 41.2380 -5.9930 42° Northeast 443 510 40,000 133 Climbing FlightAware ADS-B
Tue 03:58:54 AM 41.3250 -5.8890 42° Northeast 443 510 40,000  Level FlightAware ADS-B
Tue 03:59:57 AM 41.4200 -5.7740 42° Northeast 440 506 40,000  Level FlightAware ADS-B
Tue 04:00:35 AM 41.4770 -5.7050 42° Northeast 439 505 40,000  Level FlightAware ADS-B
Tue 04:01:26 AM 41.5430 -5.6260 42° Northeast 439 505 40,000  Level FlightAware ADS-B
Tue 04:02:02 AM 41.5890 -5.5700 42° Northeast 439 505 40,000  Level FlightAware ADS-B
Tue 04:02:30 AM 41.6790 -5.5560 North 427 491 40,000  Level FlightAware ADS-B
Tue 04:03:08 AM 41.7480 -5.5180 22° Northeast 427 491 40,000  Level FlightAware ADS-B
Tue 04:03:48 AM 41.8200 -5.4760 23° Northeast 430 495 40,000  Level FlightAware ADS-B
Tue 04:04:22 AM 41.8830 -5.4410 22° Northeast 431 496 40,000  Level FlightAware ADS-B
Tue 04:05:22 AM 41.9940 -5.3770 23° Northeast 430 495 40,000  Level FlightAware ADS-B
Tue 04:06:12 AM 42.0860 -5.3250 23° Northeast 428 493 40,000  Level FlightAware ADS-B
Tue 04:06:44 AM 42.1440 -5.2920 23° Northeast 434 499 40,000  Level FlightAware ADS-B
Tue 04:07:40 AM 42.2490 -5.2320 23° Northeast 445 512 40,000  Level FlightAware ADS-B
Tue 04:08:26 AM 42.3340 -5.1820 23° Northeast 448 516 40,000  Level FlightAware ADS-B
Tue 04:09:08 AM 42.4180 -5.1340 23° Northeast 448 516 40,000  Level FlightAware ADS-B
Tue 04:09:37 AM 42.4720 -5.1030 23° Northeast 448 516 40,000  Level FlightAware ADS-B
Tue 04:10:08 AM 42.5310 -5.0680 24° Northeast 447 514 40,000  Level FlightAware ADS-B
Tue 04:11:04 AM 42.6380 -5.0060 23° Northeast 450 518 40,000  Level FlightAware ADS-B
Tue 04:11:32 AM 42.6910 -4.9750 23° Northeast 449 517 40,000  Level FlightAware ADS-B
Tue 04:12:24 AM 42.7900 -4.9170 23° Northeast 446 513 40,000  Level FlightAware ADS-B
Tue 04:13:33 AM 42.9170 -4.8410 24° Northeast 442 509 40,000  Level FlightAware ADS-B
Tue 04:14:08 AM 42.9840 -4.8020 23° Northeast 442 509 40,000  Level FlightAware ADS-B
Tue 04:14:40 AM 43.0440 -4.7670 23° Northeast 440 506 40,000  Level FlightAware ADS-B
Tue 04:15:45 AM 43.1660 -4.6950 23° Northeast 440 506 40,000  Level FlightAware ADS-B
Tue 04:16:13 AM 43.2160 -4.6650 24° Northeast 441 507 40,000  Level FlightAware ADS-B
Tue 04:17:18 AM 43.3390 -4.5920 23° Northeast 443 510 40,000  Level FlightAware ADS-B
Tue 04:17:46 AM 43.3940 -4.5580 24° Northeast 441 507 40,000  Level FlightAware ADS-B
Tue 04:18:18 AM 43.4560 -4.5210 23° Northeast 441 507 40,000  Level FlightAware ADS-B
Tue 04:18:55 AM 43.5260 -4.4790 24° Northeast 442 509 40,000  Level FlightAware ADS-B
Tue 04:19:32 AM 43.5950 -4.4370 24° Northeast 442 509 40,000  Level FlightAware ADS-B
Tue 04:20:04 AM 43.6530 -4.4020 24° Northeast 442 509 40,000  Level FlightAware ADS-B
Tue 04:20:37 AM 43.7160 -4.3640 24° Northeast 441 507 40,000  Level FlightAware ADS-B
Tue 04:21:10 AM 43.7780 -4.3270 23° Northeast 441 507 40,000  Level FlightAware ADS-B
Tue 04:22:06 AM 43.8780 -4.2660 24° Northeast 441 507 40,000  Level FlightAware ADS-B
Tue 04:22:37 AM 43.9390 -4.2280 24° Northeast 440 506 40,000  Level FlightAware ADS-B
Tue 04:23:22 AM 44.0240 -4.1760 24° Northeast 440 506 40,000  Level FlightAware ADS-B
Tue 04:23:57 AM 44.0880 -4.1370 24° Northeast 440 506 40,000  Level FlightAware ADS-B
Tue 04:24:45 AM 44.1790 -4.0810 24° Northeast 443 510 40,000  Level FlightAware ADS-B
Tue 04:25:21 AM 44.2460 -4.0390 24° Northeast 445 512 40,000  Level FlightAware ADS-B
Tue 04:25:54 AM 44.3090 -4.0010 23° Northeast 445 512 40,000  Level FlightAware ADS-B
Tue 04:26:59 AM 44.4260 -3.9130 28° Northeast 451 519 40,000  Level FlightAware ADS-B
Tue 04:27:38 AM 44.4930 -3.8460 35° Northeast 452 520 40,000  Level FlightAware ADS-B
Tue 04:28:14 AM 44.5540 -3.7840 36° Northeast 452 520 40,000  Level FlightAware ADS-B
Tue 04:28:47 AM 44.6090 -3.7270 36° Northeast 454 522 40,000  Level FlightAware ADS-B
Tue 04:29:36 AM 44.6910 -3.6440 36° Northeast 455 524 40,000  Level FlightAware ADS-B
Tue 04:30:12 AM 44.7530 -3.5800 36° Northeast 454 522 40,000  Level FlightAware ADS-B
Tue 04:30:52 AM 44.8240 -3.5080 36° Northeast 456 525 40,000  Level FlightAware ADS-B
Tue 04:31:51 AM 44.9240 -3.4050 36° Northeast 456 525 40,000  Level FlightAware ADS-B
Tue 04:32:48 AM 45.0190 -3.3060 36° Northeast 458 527 40,000  Level FlightAware ADS-B
Tue 04:33:18 AM 45.0720 -3.2530 35° Northeast 459 528 40,000  Level FlightAware ADS-B
Tue 04:33:46 AM 45.1200 -3.2030 36° Northeast 461 531 40,000  Level FlightAware ADS-B
Tue 04:34:57 AM 45.2430 -3.0740 36° Northeast 461 531 40,000  Level FlightAware ADS-B
Tue 04:35:30 AM 45.2990 -3.0170 36° Northeast 461 531 40,000  Level FlightAware ADS-B
Tue 04:36:04 AM 45.3550 -2.9570 37° Northeast 462 532 40,000  Level FlightAware ADS-B
Tue 04:36:31 AM 45.4020 -2.9080 36° Northeast 462 532 40,000  Level FlightAware ADS-B
Tue 04:37:03 AM 45.4580 -2.8480 37° Northeast 461 531 40,000  Level FlightAware ADS-B
Tue 04:37:51 AM 45.5397 -2.7616 37° Northeast 461 531 40,000  Level FlightAware ADS-B (CYOW)
Tue 04:38:34 AM 45.6140 -2.6840 36° Northeast 460 529 40,000  Level FlightAware ADS-B
Tue 04:39:12 AM 45.6790 -2.6150 37° Northeast 461 531 40,000  Level FlightAware ADS-B
Tue 04:39:53 AM 45.7500 -2.5380 37° Northeast 460 529 40,000  Level FlightAware ADS-B
Tue 04:40:21 AM 45.7940 -2.4930 35° Northeast 460 529 40,000  Level FlightAware ADS-B
Tue 04:41:01 AM 45.8630 -2.4170 37° Northeast 460 529 40,000  Level FlightAware ADS-B
Tue 04:41:06 AM 45.8709 -2.4084 37° Northeast 461 531 40,000  Level FlightAware ADS-B (CYOW)
Tue 04:41:43 AM 45.9380 -2.3370 36° Northeast 462 532 40,000  Level FlightAware ADS-B
Tue 04:42:23 AM 46.0060 -2.2630 37° Northeast 462 532 40,000  Level FlightAware ADS-B
Tue 04:43:07 AM 46.0820 -2.1820 36° Northeast 465 535 40,000  Level FlightAware ADS-B
Tue 04:43:44 AM 46.1420 -2.1160 37° Northeast 467 537 40,000  Level FlightAware ADS-B
Tue 04:44:15 AM 46.1970 -2.0560 37° Northeast 468 539 40,000  Level FlightAware ADS-B
Tue 04:45:29 AM 46.3250 -1.9160 37° Northeast 470 541 40,000  Level FlightAware ADS-B
Tue 04:46:05 AM 46.3890 -1.8450 37° Northeast 471 542 40,000  Level FlightAware ADS-B
Tue 04:46:39 AM 46.4480 -1.7810 37° Northeast 470 541 40,000  Level FlightAware ADS-B
Tue 04:47:19 AM 46.5160 -1.7060 37° Northeast 469 540 40,000  Level FlightAware ADS-B
Tue 04:47:49 AM 46.5690 -1.6470 37° Northeast 468 539 40,000  Level FlightAware ADS-B
Tue 04:48:23 AM 46.6260 -1.5840 37° Northeast 468 539 40,000  Level FlightAware ADS-B
Tue 04:49:04 AM 46.6960 -1.5050 38° Northeast 469 540 40,000  Level FlightAware ADS-B
Tue 04:49:41 AM 46.7610 -1.4320 38° Northeast 469 540 40,000  Level FlightAware ADS-B
Tue 04:50:17 AM 46.8220 -1.3640 37° Northeast 470 541 40,000  Level FlightAware ADS-B
Tue 04:51:01 AM 46.8980 -1.2790 37° Northeast 469 540 40,000  Level FlightAware ADS-B
Tue 04:51:42 AM 46.9680 -1.2000 38° Northeast 468 539 40,000  Level FlightAware ADS-B
Tue 04:52:17 AM 47.0290 -1.1300 38° Northeast 468 539 40,000  Level FlightAware ADS-B
Tue 04:53:01 AM 47.1040 -1.0460 37° Northeast 469 540 40,000  Level FlightAware ADS-B
Tue 04:53:28 AM 47.1536 -0.9893 38° Northeast 470 541 40,000  Level FlightAware ADS-B
Tue 04:54:08 AM 47.2193 -0.9128 38° Northeast 472 543 40,000  Level FlightAware ADS-B
Tue 04:54:38 AM 47.2741 -0.8499 38° Northeast 473 544 40,000  Level FlightAware ADS-B
Tue 04:55:17 AM 47.3379 -0.7766 38° Northeast 473 544 40,000  Level FlightAware ADS-B
Tue 04:55:48 AM 47.3947 -0.7108 38° Northeast 473 544 40,000  Level FlightAware ADS-B
Tue 04:56:18 AM 47.4394 -0.6589 38° Northeast 474 545 40,000  Level FlightAware ADS-B
Tue 04:56:48 AM 47.4983 -0.5911 38° Northeast 474 545 40,000  Level FlightAware ADS-B
Tue 04:57:28 AM 47.5633 -0.5146 38° Northeast 475 547 40,000  Level FlightAware ADS-B
Tue 04:58:08 AM 47.6356 -0.4305 38° Northeast 474 545 40,000  Level FlightAware ADS-B
Tue 04:58:47 AM 47.6997 -0.3563 38° Northeast 474 545 40,000  Level FlightAware ADS-B
Tue 04:59:28 AM 47.7730 -0.2693 39° Northeast 473 544 40,000  Level FlightAware ADS-B
Tue 05:00:06 AM 47.8362 -0.1964 38° Northeast 474 545 40,000  Level FlightAware ADS-B
Tue 05:00:41 AM 47.8624 -0.1640 40° Northeast 473 544 40,000  Level FlightAware ADS-B
Tue 05:01:18 AM 47.9589 -0.0504 38° Northeast 475 547 40,000  Level FlightAware ADS-B
Tue 05:01:54 AM 48.0205 0.0231 39° Northeast 476 548 40,000  Level FlightAware ADS-B (CYOW)
Tue 05:02:28 AM 48.0821 0.0970 39° Northeast 477 549 40,000  Level FlightAware ADS-B
Tue 05:03:00 AM 48.1183 0.1405 39° Northeast 478 550 40,000  Level FlightAware ADS-B (CYOW)
Tue 05:03:37 AM 48.1972 0.2337 38° Northeast 480 552 40,000  Level FlightAware ADS-B (CYOW)
Tue 05:04:07 AM 48.2473 0.2941 39° Northeast 480 552 40,000  Level FlightAware ADS-B (CYOW)
Tue 05:04:40 AM 48.2988 0.3569 39° Northeast 482 555 40,000  Level FlightAware ADS-B (CYOW)
Tue 05:05:12 AM 48.3628 0.4347 39° Northeast 442 509 40,000  Level FlightAware UK
Tue 05:05:16 AM 48.3729 0.4471 39° Northeast 483 556 40,000  Level FlightAware ADS-B
Tue 05:05:54 AM 48.4359 0.5236 39° Northeast 438 504 40,000  Level FlightAware UK
Tue 05:05:59 AM 48.4420 0.5320 39° Northeast 485 558 40,000  Level FlightAware ADS-B
Tue 05:06:07 AM 48.4536 0.5447 36° Northeast 486 559 40,000  Level FlightAware ADS-B (CYOW)
Tue 05:06:37 AM 48.5139 0.6193 39° Northeast 486 559 40,000  Level FlightAware ADS-B
Tue 05:07:08 AM 48.5676 0.6856 39° Northeast 488 562 40,000  Level FlightAware ADS-B
Tue 05:07:42 AM 48.6245 0.7549 39° Northeast 444 511 40,000  Level FlightAware UK
Tue 05:07:47 AM 48.6362 0.7695 39° Northeast 488 562 40,000  Level FlightAware ADS-B
Tue 05:08:18 AM 48.6898 0.8363 39° Northeast 488 562 40,000  Level FlightAware ADS-B
Tue 05:08:54 AM 48.7432 0.9010 39° Northeast 488 562 40,000  Level FlightAware ADS-B
Tue 05:09:28 AM 48.8126 0.9879 39° Northeast 489 563 40,000  Level FlightAware ADS-B
Tue 05:10:06 AM 48.8720 1.0617 39° Northeast 489 563 40,000  Level FlightAware ADS-B
Tue 05:10:47 AM 48.9505 1.1600 39° Northeast 489 563 40,000  Level FlightAware ADS-B
Tue 05:11:17 AM 49.0020 1.2254 40° Northeast 488 562 40,000  Level FlightAware ADS-B
Tue 05:11:48 AM 49.0529 1.2889 39° Northeast 487 560 40,000  Level FlightAware ADS-B
Tue 05:12:18 AM 49.1081 1.3587 40° Northeast 487 560 40,000  Level FlightAware ADS-B
Tue 05:12:49 AM 49.1524 1.4136 39° Northeast 486 559 40,000  Level FlightAware ADS-B
Tue 05:13:27 AM 49.2283 1.5100 40° Northeast 486 559 40,000  Level FlightAware ADS-B
Tue 05:13:58 AM 49.2829 1.5744 38° Northeast 485 558 40,000  Level FlightAware ADS-B
Tue 05:14:35 AM 49.3181 1.6087 32° Northeast 486 559 40,000  Level FlightAware ADS-B
Tue 05:15:06 AM 49.4024 1.6943 33° Northeast 489 563 40,000  Level FlightAware ADS-B
Tue 05:15:39 AM 49.4666 1.7597 34° Northeast 489 563 40,000  Level FlightAware ADS-B
Tue 05:16:21 AM 49.5428 1.8387 34° Northeast 491 565 40,000  Level FlightAware ADS-B
Tue 05:17:04 AM 49.6272 1.9262 34° Northeast 492 566 40,000  Level FlightAware ADS-B
Tue 05:18:00 AM 49.7290 2.0310 34° Northeast 491 565 40,000  Level FlightAware ADS-B
Tue 05:18:01 AM 49.7362 2.0407 34° Northeast 442 509 40,000  Level FlightAware UK
Tue 05:18:02 AM 49.7260 2.0273 218° Southwest 492 566 40,000  Level FlightAware ADS-B
Tue 05:18:39 AM 49.8078 2.1115 34° Northeast 485 558 40,000  Level FlightAware ADS-B
Tue 05:19:19 AM 49.8822 2.1904 34° Northeast 485 558 40,000 -324 Level FlightAware ADS-B
Tue 05:19:53 AM 49.9420 2.2530 34° Northeast 490 564 39,600 -923 Descending FlightAware ADS-B
Tue 05:20:37 AM 50.0302 2.3476 34° Northeast 444 511 38,800 -1,054 Descending FlightAware UK
Tue 05:21:07 AM 50.0861 2.4070 34° Northeast 442 509 38,300 -1,000 Descending FlightAware UK
Tue 05:21:13 AM 50.0930 2.4120 34° Northeast 483 556 38,200 -1,000 Descending FlightAware ADS-B
Tue 05:21:43 AM 50.1521 2.4769 34° Northeast 440 506 37,700 -857 Descending FlightAware UK
Tue 05:21:48 AM 50.1590 2.4830 34° Northeast 487 560 37,700 -750 Level FlightAware ADS-B
Tue 05:21:51 AM 50.1717 2.4949 31° Northeast 485 558 37,600 -1,667 Descending FlightAware ADS-B
Tue 05:22:24 AM 50.2273 2.5543 34° Northeast 491 565 36,700 -1,636 Descending FlightAware ADS-B
Tue 05:22:57 AM 50.2916 2.6199 33° Northeast 494 568 35,800 -1,477 Descending FlightAware ADS-B
Tue 05:23:29 AM 50.3545 2.6718 28° Northeast 491 565 35,100 -1,355 Descending FlightAware ADS-B
Tue 05:23:59 AM 50.4002 2.7104 28° Northeast 482 555 34,400 -1,455 Descending FlightAware ADS-B
Tue 05:24:35 AM 50.4861 2.7824 28° Northeast 479 551 33,500 -1,459 Descending FlightAware ADS-B
Tue 05:25:13 AM 50.5624 2.8473 28° Northeast 478 550 32,600 -1,500 Descending FlightAware ADS-B
Tue 05:25:43 AM 50.6197 2.8950 28° Northeast 472 543 31,800 -1,636 Descending FlightAware ADS-B
Tue 05:26:19 AM 50.6890 2.9559 28° Northeast 424 488 30,800 -1,527 Descending FlightAware UK
Tue 05:26:38 AM 50.7208 2.9814 28° Northeast 461 531 30,400 -1,636 Descending FlightAware ADS-B
Tue 05:26:41 AM 50.7257 2.9862 32° Northeast 461 531 30,200 -1,588 Descending FlightAware ADS-B
Tue 05:27:12 AM 50.7846 3.0355 28° Northeast 461 531 29,500 -1,219 Descending FlightAware ADS-B
Tue 05:27:45 AM 50.8350 3.0790 29° Northeast 453 521 28,900 -1,500 Descending FlightAware ADS-B
Tue 05:28:00 AM 50.8758 3.1131 28° Northeast 452 520 28,300 -1,846 Descending FlightAware ADS-B
Tue 05:28:37 AM 50.9427 3.1731 28° Northeast 402 463 27,300 -1,522 Descending FlightAware UK
Tue 05:29:07 AM 50.9949 3.2182 29° Northeast 398 458 26,600 -1,227 Descending FlightAware UK
Tue 05:29:21 AM 51.0050 3.2250 29° Northeast 421 484 26,400 -1,345 Descending FlightAware ADS-B
Tue 05:30:05 AM 51.0800 3.2900 29° Northeast 406 467 25,300 -1,518 Descending FlightAware ADS-B
Tue 05:30:44 AM 51.1440 3.3470 29° Northeast 396 456 24,300 -1,773 Descending FlightAware ADS-B
Tue 05:30:49 AM 51.1608 3.3606 27° Northeast 402 463 24,000 -1,756 Descending FlightAware ADS-B
Tue 05:31:25 AM 51.2199 3.4124 29° Northeast 401 461 23,100 -1,433 Descending FlightAware ADS-B
Tue 05:31:56 AM 51.2701 3.4565 29° Northeast 391 450 22,400 -1,377 Descending FlightAware ADS-B
Tue 05:32:26 AM 51.3180 3.4977 28° Northeast 391 450 21,700 -1,468 Descending FlightAware ADS-B
Tue 05:33:30 AM 51.4170 3.5870 29° Northeast 379 436 20,100 -1,570 Descending FlightAware ADS-B
Tue 05:34:13 AM 51.4820 3.6440 29° Northeast 379 436 18,900 -1,823 Descending FlightAware ADS-B
Tue 05:34:49 AM 51.5408 3.6965 29° Northeast 344 396 17,700 -1,800 Descending FlightAware UK
Tue 05:34:53 AM 51.5440 3.6980 29° Northeast 375 432 17,700 -1,667 Level FlightAware ADS-B
Tue 05:35:25 AM 51.5940 3.7420 29° Northeast 369 425 16,700 -1,935 Descending FlightAware ADS-B
Tue 05:35:55 AM 51.6403 3.7838 29° Northeast 336 387 15,700 -1,833 Descending FlightAware UK
Tue 05:36:01 AM 51.6470 3.7890 29° Northeast 360 414 15,600 -1,622 Descending FlightAware ADS-B
Tue 05:36:32 AM 51.2251 3.4167 209° Southwest 353 406 14,700 -1,714 Descending FlightAware ADS-B
Tue 05:37:18 AM 51.7520 3.8990 29° Northeast 349 402 13,400 -1,753 Descending FlightAware ADS-B
Tue 05:38:01 AM 51.8044 3.9756 29° Northeast 312 359 12,100 -1,742 Descending FlightAware UK
Tue 05:38:20 AM 51.8250 4.0040 29° Northeast 337 388 11,600 -1,627 Descending FlightAware ADS-B
Tue 05:39:00 AM 51.8700 4.0690 42° Northeast 332 382 10,500 -1,200 Descending FlightAware ADS-B
Tue 05:39:40 AM 51.9160 4.1370 42° Northeast 317 365 10,000 -835 Descending FlightAware ADS-B
Tue 05:40:19 AM 51.9580 4.1980 42° Northeast 310 357 9,400 -909 Descending FlightAware ADS-B
Tue 05:40:46 AM 51.9860 4.2390 42° Northeast 309 356 9,000 -1,000 Descending FlightAware ADS-B
Tue 05:41:19 AM 52.0218 4.2927 42° Northeast 1 1 8,400 -1,000 Descending FlightAware UK
Tue 05:41:22 AM 52.0240 4.2930 42° Northeast 309 356 8,400 -811 Level FlightAware ADS-B
Tue 05:41:56 AM 52.0600 4.3450 42° Northeast 307 353 7,900 -1,026 Descending FlightAware ADS-B
Tue 05:42:38 AM 52.1050 4.4100 42° Northeast 296 341 7,100 -600 Descending FlightAware ADS-B
Tue 05:43:26 AM 52.1510 4.4780 42° Northeast 270 311 7,000 -71 Descending FlightAware ADS-B
Tue 05:44:02 AM 52.1840 4.5270 42° Northeast 271 312 7,000  Level FlightAware ADS-B
Tue 05:44:46 AM 52.2250 4.5880 42° Northeast 271 312 7,000  Level FlightAware ADS-B
Tue 05:45:18 AM 52.2580 4.6200 31° Northeast 250 288 7,000  Level FlightAware ADS-B
Tue 05:45:58 AM 52.3030 4.6130 355° North 247 284 7,000  Level FlightAware ADS-B
Tue 05:46:25 AM 52.3340 4.6060 352° North 249 287 7,000  Level FlightAware ADS-B
Tue 05:47:02 AM 52.3760 4.5980 353° North 242 278 7,000 -592 Level FlightAware ADS-B
Tue 05:47:36 AM 52.4140 4.5910 354° North 254 292 6,300 -846 Descending FlightAware ADS-B
Tue 05:48:20 AM 52.4630 4.6000 North 235 270 5,900 -583 Descending FlightAware ADS-B
Tue 05:48:48 AM 52.4930 4.6070 North 220 253 5,600 -844 Descending FlightAware ADS-B
Tue 05:49:24 AM 52.5310 4.6160 North 213 245 5,000 -951 Descending FlightAware ADS-B
Tue 05:50:10 AM 52.5740 4.6260 North 211 243 4,300 -940 Descending FlightAware ADS-B
Tue 05:50:47 AM 52.6080 4.6340 North 210 242 3,700 -947 Descending FlightAware ADS-B
Tue 05:51:26 AM 52.6460 4.6470 12° North 220 253 3,100 -646 Descending FlightAware ADS-B
Tue 05:51:52 AM 52.6570 4.6840 64° Northeast 220 253 3,000 -450 Descending FlightAware ADS-B
Tue 05:52:46 AM 52.6230 4.7330 139° Southeast 176 203 2,500 -512 Descending FlightAware ADS-B
Tue 05:53:14 AM 52.6010 4.7340 178° South 172 198 2,300 -250 Descending FlightAware ADS-B
Tue 05:53:58 AM 52.5670 4.7310 183° South 168 193 2,200 -67 Descending FlightAware ADS-B
Tue 05:54:43 AM 52.5330 4.7270 184° South 167 192 2,200  Level FlightAware ADS-B
Tue 05:55:11 AM 52.5090 4.7250 183° South 173 199 2,200  Level FlightAware ADS-B
Tue 05:55:43 AM 52.4830 4.7230 183° South 175 201 2,200  Level FlightAware ADS-B
Tue 05:56:10 AM 52.4620 4.7210 183° South 170 196 2,200 -492 Level FlightAware ADS-B
Tue 05:56:44 AM 52.4370 4.7190 183° South 153 176 1,700 -896 Descending FlightAware ADS-B
Tue 05:57:17 AM 52.4160 4.7170 183° South 129 148 1,200 -686 Descending FlightAware ADS-B
Tue 05:57:54 AM 52.3940 4.7150 183° South 124 143 900 -632 Descending FlightAware ADS-B
Tue 05:58:33 AM 52.3720 4.7130 183° South 133 153 400 -769 Descending FlightAware ADS-B

Login

Don't have an account? Register now (free) for customized features, flight alerts, and more!